Time;durP1;ratioP1;P1;durP2;ratioP2;P2;SDS_P1;SDS_P2;PMS_P1;PMS_P2;Temp;Humidity;BMP_temperature;BMP_pressure;BME280_temperature;BME280_humidity;BME280_pressure;Samples;Min_cycle;Max_cycle;Signal;HPM_P1;HPM_P2
2022/11/29 00:01:05;;;;;;;48.37;28.77;;;9.20;99.90;;;;;;2615089;54;20183;-75
2022/11/29 00:06:53;;;;;;;46.73;24.50;;;9.10;99.90;;;;;;2614587;39;20863;-75
2022/11/29 00:12:41;;;;;;;44.93;24.17;;;9.20;99.90;;;;;;2615322;54;20134;-75
2022/11/29 00:18:28;;;;;;;46.63;26.53;;;9.10;99.90;;;;;;2615474;39;20617;-75
2022/11/29 00:24:16;;;;;;;47.23;25.77;;;9.10;99.90;;;;;;2615042;54;20166;-75
2022/11/29 00:30:05;;;;;;;58.90;28.57;;;9.10;99.90;;;;;;2615323;39;20786;-74
2022/11/29 00:35:52;;;;;;;51.03;28.43;;;9.10;99.90;;;;;;2615410;46;20397;-75
2022/11/29 00:45:02;;;;;;;61.03;31.00;;;9.10;99.90;;;;;;2613751;54;20511;-77
2022/11/29 00:50:50;;;;;;;58.03;28.27;;;9.10;99.90;;;;;;2614735;54;20451;-74
2022/11/29 00:56:38;;;;;;;67.50;30.93;;;9.10;99.90;;;;;;2615492;54;20143;-74
2022/11/29 01:02:25;;;;;;;58.20;27.33;;;9.10;99.90;;;;;;2615333;54;20636;-75
2022/11/29 01:08:13;;;;;;;63.97;30.03;;;9.10;99.90;;;;;;2614519;54;20259;-77
2022/11/29 01:14:02;;;;;;;58.30;28.33;;;9.20;99.90;;;;;;2615224;54;20362;-76
2022/11/29 01:19:50;;;;;;;47.83;24.40;;;9.10;99.90;;;;;;2615642;54;20390;-77
2022/11/29 01:25:38;;;;;;;49.03;26.77;;;9.10;99.90;;;;;;2615762;54;20135;-74
2022/11/29 01:31:34;;;;;;;48.07;25.30;;;9.10;99.90;;;;;;2615909;39;20511;-75
2022/11/29 01:37:22;;;;;;;44.77;25.37;;;9.10;99.90;;;;;;2615590;54;20933;-77
2022/11/29 01:40:27;;;;;;;69.80;30.60;;;9.10;99.90;;;;;;2612602;47;20507;-74
2022/11/29 01:42:53;;;;;;;93.27;36.57;;;9.10;99.90;;;;;;2613447;47;20167;-76
2022/11/29 01:48:40;;;;;;;75.57;35.37;;;9.20;99.90;;;;;;2614256;54;20146;-75
2022/11/29 01:54:28;;;;;;;106.00;38.00;;;9.00;99.90;;;;;;2614263;54;20127;-74
2022/11/29 02:00:17;;;;;;;123.07;41.20;;;9.00;99.90;;;;;;2613812;46;20379;-74
2022/11/29 02:06:06;;;;;;;100.20;39.27;;;9.00;99.90;;;;;;2611710;54;20409;-79
2022/11/29 02:12:08;;;;;;;110.77;39.30;;;9.00;99.90;;;;;;2613359;54;20423;-78
2022/11/29 02:17:58;;;;;;;86.90;36.07;;;9.00;99.90;;;;;;2613857;54;20419;-80
2022/11/29 02:47:40;;;;;;;79.43;30.47;;;9.00;99.90;;;;;;2612384;39;20968;-78
2022/11/29 02:53:43;;;;;;;84.93;31.80;;;9.10;99.90;;;;;;2611893;54;20382;-79
2022/11/29 03:06:10;;;;;;;75.57;32.97;;;9.00;99.90;;;;;;2613061;54;20436;-79
2022/11/29 03:12:05;;;;;;;61.57;24.30;;;9.00;99.90;;;;;;2611567;54;20424;-79
2022/11/29 03:18:07;;;;;;;54.77;23.90;;;8.90;99.90;;;;;;2614689;54;20428;-80
2022/11/29 03:24:04;;;;;;;47.20;23.43;;;8.90;99.90;;;;;;2614876;54;20508;-79
2022/11/29 03:36:17;;;;;;;69.57;26.37;;;8.90;99.90;;;;;;2617099;39;20894;-75
2022/11/29 04:12:25;;;;;;;79.50;29.97;;;8.60;99.90;;;;;;2612696;39;20884;-75
2022/11/29 04:25:01;;;;;;;79.90;26.40;;;8.60;99.90;;;;;;2613963;54;20403;-75
2022/11/29 04:44:46;;;;;;;95.97;29.93;;;8.50;99.90;;;;;;2614771;54;20970;-74
2022/11/29 05:01:14;;;;;;;85.80;29.13;;;8.60;99.90;;;;;;2614555;54;20407;-74
2022/11/29 05:31:07;;;;;;;69.83;27.37;;;8.50;99.90;;;;;;2613140;54;20469;-76
2022/11/29 05:37:00;;;;;;;61.97;28.63;;;8.40;99.90;;;;;;2613425;54;20416;-76
2022/11/29 05:47:08;;;;;;;66.00;27.43;;;8.30;99.90;;;;;;2615281;54;20472;-75
2022/11/29 05:53:26;;;;;;;71.37;27.77;;;8.30;99.90;;;;;;2613826;54;20367;-75
2022/11/29 06:22:40;;;;;;;55.90;25.97;;;8.10;99.90;;;;;;2614641;54;20415;-77
2022/11/29 06:28:43;;;;;;;60.57;23.50;;;8.10;99.90;;;;;;2616385;54;20423;-76
2022/11/29 06:40:58;;;;;;;55.37;24.17;;;8.10;99.90;;;;;;2615833;54;20354;-76
2022/11/29 06:51:04;;;;;;;65.03;23.37;;;8.00;99.90;;;;;;2616630;54;20877;-77
2022/11/29 07:01:04;;;;;;;67.67;28.80;;;8.10;99.90;;;;;;2615228;54;20391;-76
2022/11/29 07:06:52;;;;;;;59.73;24.93;;;8.10;99.90;;;;;;2614001;54;20412;-76
2022/11/29 07:09:19;;;;;;;90.37;29.57;;;8.20;99.90;;;;;;2613207;54;20491;-79
2022/11/29 07:11:46;;;;;;;60.80;26.43;;;8.20;99.90;;;;;;2614199;39;20884;-77
2022/11/29 07:14:49;;;;;;;80.17;30.07;;;8.20;99.90;;;;;;2614320;54;20402;-77
2022/11/29 07:17:26;;;;;;;62.93;27.93;;;8.20;99.90;;;;;;2614716;47;20473;-76
2022/11/29 07:33:44;;;;;;;68.67;28.20;;;8.10;99.90;;;;;;2611617;54;20419;-75
2022/11/29 07:46:15;;;;;;;57.57;24.90;;;8.00;99.90;;;;;;2612436;54;20569;-77
2022/11/29 07:52:02;;;;;;;64.37;27.37;;;7.90;99.90;;;;;;2611451;54;20447;-75
2022/11/29 07:55:04;;;;;;;72.17;28.13;;;8.00;99.90;;;;;;2613038;54;20411;-76
2022/11/29 07:57:32;;;;;;;70.27;29.93;;;8.00;99.90;;;;;;2611928;39;20659;-76
2022/11/29 08:03:20;;;;;;;51.13;24.37;;;7.90;99.90;;;;;;2613689;54;20395;-77
2022/11/29 08:09:08;;;;;;;51.37;23.57;;;7.90;99.90;;;;;;2613452;54;20134;-76
2022/11/29 08:14:56;;;;;;;67.93;27.60;;;8.00;99.90;;;;;;2614806;54;21060;-76
2022/11/29 08:20:45;;;;;;;63.23;25.70;;;8.20;99.90;;;;;;2612560;54;20173;-77
2022/11/29 08:26:33;;;;;;;69.90;27.63;;;8.20;99.90;;;;;;2616509;54;20516;-77
2022/11/29 08:32:20;;;;;;;70.27;28.27;;;8.20;99.90;;;;;;2615662;54;20122;-78
2022/11/29 08:38:08;;;;;;;72.37;30.40;;;8.40;99.90;;;;;;2616480;54;20138;-76
2022/11/29 08:43:56;;;;;;;80.17;30.53;;;8.40;99.90;;;;;;2616868;54;20182;-75
2022/11/29 08:49:20;;;;;;;75.63;31.37;;;8.30;99.90;;;;;;2617042;39;20331;-76
2022/11/29 08:55:08;;;;;;;73.80;29.50;;;8.40;99.90;;;;;;2617344;54;20359;-76
2022/11/29 09:00:56;;;;;;;61.40;30.73;;;8.40;99.90;;;;;;2617395;54;20251;-76
2022/11/29 09:06:44;;;;;;;73.83;29.07;;;8.40;99.90;;;;;;2616744;54;20370;-77
2022/11/29 09:12:32;;;;;;;74.40;29.50;;;8.60;99.90;;;;;;2614627;54;20126;-78
2022/11/29 09:18:21;;;;;;;78.73;29.67;;;8.60;99.90;;;;;;2616512;54;20223;-77
2022/11/29 09:24:09;;;;;;;65.73;28.50;;;8.50;99.90;;;;;;2616774;54;20407;-77
2022/11/29 09:29:57;;;;;;;58.83;25.50;;;8.60;99.90;;;;;;2616132;54;20427;-77
2022/11/29 09:35:46;;;;;;;62.07;26.10;;;8.50;99.90;;;;;;2615592;54;20138;-76
2022/11/29 09:51:41;;;;;;;65.37;24.53;;;8.60;99.90;;;;;;2614362;54;20498;-77
2022/11/29 09:57:31;;;;;;;75.50;25.53;;;8.50;99.90;;;;;;2613852;54;20417;-76
2022/11/29 10:03:24;;;;;;;54.77;19.93;;;8.60;99.90;;;;;;2614672;39;21034;-75
2022/11/29 10:09:17;;;;;;;51.53;21.17;;;8.60;99.90;;;;;;2614726;54;21003;-77
2022/11/29 10:12:38;;;;;;;56.83;25.53;;;8.80;99.90;;;;;;2613682;47;20395;-78
2022/11/29 10:25:16;;;;;;;50.83;21.40;;;8.80;99.90;;;;;;2615629;39;20759;-76
2022/11/29 10:28:00;;;;;;;50.60;22.70;;;8.80;99.90;;;;;;2616172;46;20414;-77
2022/11/29 10:33:48;;;;;;;50.03;22.73;;;9.00;99.90;;;;;;2614782;54;20367;-77
2022/11/29 10:46:35;;;;;;;59.87;26.50;;;8.90;99.90;;;;;;2615537;54;20391;-77
2022/11/29 10:49:34;;;;;;;71.60;27.37;;;8.90;99.90;;;;;;2616204;54;20423;-77
2022/11/29 10:55:25;;;;;;;70.43;28.43;;;8.80;99.90;;;;;;2615899;54;20421;-76
2022/11/29 11:01:14;;;;;;;57.97;27.73;;;8.70;99.90;;;;;;2614382;54;20890;-78
2022/11/29 11:07:05;;;;;;;85.50;33.63;;;8.70;99.90;;;;;;2615655;54;20473;-80
2022/11/29 11:17:00;;;;;;;91.70;36.13;;;8.70;99.90;;;;;;2615309;54;20418;-78
2022/11/29 11:19:31;;;;;;;100.67;34.60;;;8.80;99.90;;;;;;2614688;54;20414;-79
2022/11/29 11:22:00;;;;;;;114.60;36.70;;;8.90;99.90;;;;;;2614140;47;20602;-80
2022/11/29 11:27:47;;;;;;;98.50;34.13;;;8.80;99.90;;;;;;2614442;39;20788;-80
2022/11/29 11:33:38;;;;;;;92.37;38.10;;;8.80;99.90;;;;;;2614626;54;20211;-80
2022/11/29 11:39:27;;;;;;;94.67;37.00;;;8.80;99.90;;;;;;2615485;46;20427;-81
2022/11/29 11:45:14;;;;;;;104.37;37.40;;;8.70;99.90;;;;;;2611322;54;20951;-79
2022/11/29 11:51:01;;;;;;;92.50;36.17;;;8.80;99.90;;;;;;2613855;54;20122;-78
2022/11/29 12:10:35;;;;;;;90.90;32.97;;;8.90;99.90;;;;;;2610790;54;20529;-80
2022/11/29 12:16:33;;;;;;;82.40;30.43;;;8.70;99.90;;;;;;2613282;54;20410;-81
2022/11/29 12:22:25;;;;;;;85.37;31.83;;;8.70;99.90;;;;;;2613921;54;20387;-80
2022/11/29 12:28:15;;;;;;;116.43;34.87;;;8.70;99.90;;;;;;2616554;54;20386;-80
2022/11/29 12:51:22;;;;;;;93.13;34.73;;;8.60;99.90;;;;;;2616212;54;20999;-76
2022/11/29 13:09:58;;;;;;;73.40;33.40;;;8.80;99.90;;;;;;2619321;54;20427;-77
2022/11/29 13:20:20;;;;;;;95.03;35.57;;;8.90;99.90;;;;;;2615043;39;20675;-77
2022/11/29 13:26:11;;;;;;;83.83;30.27;;;8.90;99.90;;;;;;2615334;54;20495;-77
2022/11/29 13:31:59;;;;;;;76.77;31.10;;;9.00;99.90;;;;;;2616127;39;20713;-78
2022/11/29 13:44:21;;;;;;;79.77;29.20;;;9.00;99.90;;;;;;2615851;54;20990;-78
2022/11/29 13:50:41;;;;;;;72.00;29.10;;;8.90;99.90;;;;;;2615452;39;20486;-77
2022/11/29 14:06:17;;;;;;;66.70;27.90;;;9.00;99.90;;;;;;2614869;54;20383;-78
2022/11/29 14:13:17;;;;;;;78.70;29.47;;;9.00;99.90;;;;;;2615952;39;21280;-75
2022/11/29 14:22:25;;;;;;;81.40;30.20;;;9.00;99.90;;;;;;2615617;54;20387;-76
2022/11/29 14:28:13;;;;;;;68.90;29.23;;;9.00;99.90;;;;;;2615666;54;20242;-77
2022/11/29 14:34:06;;;;;;;59.80;28.83;;;8.90;99.90;;;;;;2616076;54;20123;-77
2022/11/29 14:49:47;;;;;;;67.47;28.63;;;9.00;99.90;;;;;;2616726;54;20379;-76
2022/11/29 14:59:34;;;;;;;68.73;25.63;;;8.90;99.90;;;;;;2617176;54;20518;-76
2022/11/29 15:02:56;;;;;;;76.73;27.90;;;9.00;99.90;;;;;;2616122;47;20395;-77
2022/11/29 15:11:59;;;;;;;56.47;24.67;;;9.00;99.90;;;;;;2616682;54;20375;-77
2022/11/29 15:17:57;;;;;;;59.53;23.30;;;8.90;99.90;;;;;;2615113;54;20503;-76
2022/11/29 15:30:33;;;;;;;51.97;22.67;;;8.80;99.90;;;;;;2616679;54;20399;-78
2022/11/29 15:36:23;;;;;;;66.63;23.10;;;8.80;99.90;;;;;;2617047;54;20944;-78
2022/11/29 15:39:41;;;;;;;62.97;24.67;;;8.80;99.90;;;;;;2616628;47;20406;-78
2022/11/29 15:42:12;;;;;;;61.57;23.20;;;8.70;99.90;;;;;;2615600;47;20410;-78
2022/11/29 16:01:01;;;;;;;50.57;23.00;;;8.70;99.90;;;;;;2616488;54;20415;-78
2022/11/29 16:13:24;;;;;;;50.33;23.67;;;8.70;99.90;;;;;;2615925;54;20404;-77
2022/11/29 16:19:27;;;;;;;73.33;26.20;;;8.60;99.90;;;;;;2615456;54;20427;-76
2022/11/29 16:25:17;;;;;;;71.10;29.47;;;8.60;99.90;;;;;;2616689;54;20937;-78
2022/11/29 16:31:05;;;;;;;67.67;25.20;;;8.60;99.90;;;;;;2616024;54;20416;-81
2022/11/29 16:33:31;;;;;;;71.10;26.17;;;8.50;99.90;;;;;;2612472;47;20419;-79
2022/11/29 16:42:37;;;;;;;59.90;24.07;;;8.50;99.90;;;;;;2616078;54;20368;-82
2022/11/29 16:48:29;;;;;;;49.77;22.40;;;8.40;99.90;;;;;;2615192;54;20961;-81
2022/11/29 16:54:22;;;;;;;55.20;21.97;;;8.40;99.90;;;;;;2617658;54;20414;-78
2022/11/29 17:06:49;;;;;;;60.47;23.60;;;8.40;99.90;;;;;;2616748;54;20403;-78
2022/11/29 17:12:38;;;;;;;55.93;25.23;;;8.40;99.90;;;;;;2617003;54;20383;-80
2022/11/29 17:18:26;;;;;;;64.37;23.13;;;8.30;99.90;;;;;;2616255;54;20399;-77
2022/11/29 17:24:18;;;;;;;58.57;23.70;;;8.30;99.90;;;;;;2617406;39;20619;-80
2022/11/29 17:30:06;;;;;;;76.63;26.83;;;8.30;99.90;;;;;;2616342;54;20387;-78
2022/11/29 17:35:54;;;;;;;51.27;22.03;;;8.30;99.90;;;;;;2616911;54;20402;-78
2022/11/29 17:41:45;;;;;;;67.93;29.47;;;8.40;99.90;;;;;;2616828;54;20139;-79
2022/11/29 17:47:33;;;;;;;63.27;25.27;;;8.40;99.90;;;;;;2617281;54;20391;-81
2022/11/29 17:53:22;;;;;;;52.93;23.73;;;8.30;99.90;;;;;;2615381;54;20688;-82
2022/11/29 17:59:10;;;;;;;66.13;29.20;;;8.30;99.90;;;;;;2616649;39;20466;-80
2022/11/29 18:04:58;;;;;;;69.00;27.70;;;8.40;99.90;;;;;;2614773;54;20133;-81
2022/11/29 18:10:46;;;;;;;62.53;26.57;;;8.20;99.90;;;;;;2615634;54;20134;-82
2022/11/29 18:16:34;;;;;;;67.10;31.40;;;8.20;99.90;;;;;;2618301;54;20993;-79
2022/11/29 18:22:23;;;;;;;71.30;31.00;;;8.20;99.90;;;;;;2617523;54;20377;-82
2022/11/29 18:28:12;;;;;;;66.50;35.67;;;8.20;99.90;;;;;;2617091;54;20371;-82
2022/11/29 18:34:05;;;;;;;75.70;37.87;;;8.20;99.90;;;;;;2616118;54;20406;-81
2022/11/29 18:39:53;;;;;;;72.53;31.27;;;8.30;99.90;;;;;;2615956;54;20498;-83
2022/11/29 18:45:41;;;;;;;59.43;29.50;;;8.20;99.90;;;;;;2615693;54;20150;-83
2022/11/29 18:51:30;;;;;;;61.73;30.80;;;8.20;99.90;;;;;;2615354;54;20547;-82
2022/11/29 18:57:17;;;;;;;64.40;32.13;;;8.20;99.90;;;;;;2615052;39;20885;-81
2022/11/29 19:03:05;;;;;;;80.97;32.37;;;8.20;99.90;;;;;;2615509;54;20138;-82
2022/11/29 19:06:09;;;;;;;65.20;34.07;;;8.20;99.90;;;;;;2614077;54;20383;-82
2022/11/29 19:08:36;;;;;;;66.90;31.73;;;8.10;99.90;;;;;;2614032;47;20431;-82
2022/11/29 19:14:23;;;;;;;70.03;33.67;;;8.20;99.90;;;;;;2615962;39;21000;-80
2022/11/29 19:20:11;;;;;;;77.23;32.33;;;8.20;99.90;;;;;;2616546;54;20244;-81
2022/11/29 19:26:08;;;;;;;90.40;35.17;;;8.20;99.90;;;;;;2619882;54;20411;-83
2022/11/29 19:31:56;;;;;;;99.17;35.20;;;8.10;99.90;;;;;;2615528;54;20414;-82
2022/11/29 19:37:45;;;;;;;86.63;35.87;;;8.20;99.90;;;;;;2617718;54;20158;-82
2022/11/29 19:43:33;;;;;;;68.63;34.70;;;8.10;99.90;;;;;;2617028;39;20670;-82
2022/11/29 19:49:20;;;;;;;92.33;35.20;;;8.10;99.90;;;;;;2617565;39;20538;-82
2022/11/29 19:55:08;;;;;;;71.43;32.17;;;8.10;99.90;;;;;;2616626;54;20200;-82
2022/11/29 20:07:29;;;;;;;82.47;35.57;;;8.00;99.90;;;;;;2614630;54;20457;-79
2022/11/29 20:13:19;;;;;;;88.40;34.60;;;8.00;99.90;;;;;;2615411;54;20506;-78
2022/11/29 20:19:14;;;;;;;97.17;37.50;;;8.00;99.90;;;;;;2615535;54;20387;-78
2022/11/29 20:25:01;;;;;;;81.53;34.77;;;8.00;99.90;;;;;;2616954;39;20848;-78
2022/11/29 20:30:51;;;;;;;96.03;39.80;;;8.00;99.90;;;;;;2616520;54;20724;-77
2022/11/29 20:43:23;;;;;;;92.23;37.73;;;7.90;99.90;;;;;;2617308;54;20955;-76
2022/11/29 20:49:13;;;;;;;97.60;39.67;;;7.90;99.90;;;;;;2616055;54;20528;-78
2022/11/29 20:55:02;;;;;;;97.70;38.53;;;7.80;99.90;;;;;;2617177;54;20374;-77
2022/11/29 21:00:52;;;;;;;105.10;39.87;;;7.80;99.90;;;;;;2616789;39;20798;-77
2022/11/29 21:06:40;;;;;;;124.40;45.90;;;7.80;99.90;;;;;;2617479;54;20387;-78
2022/11/29 21:12:29;;;;;;;98.97;42.90;;;7.80;99.90;;;;;;2616616;54;20434;-81
2022/11/29 21:18:22;;;;;;;105.23;43.63;;;7.70;99.90;;;;;;2617621;54;20363;-82
2022/11/29 21:30:46;;;;;;;104.67;44.50;;;7.70;99.90;;;;;;2616191;54;20392;-81
2022/11/29 21:36:35;;;;;;;118.40;42.47;;;7.80;99.90;;;;;;2614728;54;20386;-80
2022/11/29 21:42:23;;;;;;;138.53;45.57;;;7.80;99.90;;;;;;2614946;54;20423;-80
2022/11/29 21:54:19;;;;;;;129.13;48.10;;;7.80;99.90;;;;;;2614388;46;20393;-79
2022/11/29 22:00:07;;;;;;;139.50;49.80;;;7.80;99.90;;;;;;2614772;54;20150;-80
2022/11/29 22:06:01;;;;;;;141.03;48.63;;;7.70;99.90;;;;;;2615178;54;20960;-80
2022/11/29 22:11:48;;;;;;;141.60;51.60;;;7.80;99.90;;;;;;2613915;54;20433;-79
2022/11/29 22:17:38;;;;;;;142.30;52.47;;;7.70;99.90;;;;;;2613636;54;20167;-80
2022/11/29 22:23:25;;;;;;;163.40;54.40;;;7.70;99.90;;;;;;2613501;54;20497;-80
2022/11/29 22:29:14;;;;;;;144.57;48.33;;;7.70;99.90;;;;;;2615251;54;20238;-81
2022/11/29 22:35:01;;;;;;;147.30;50.17;;;7.80;99.90;;;;;;2614913;39;20916;-80
2022/11/29 22:40:49;;;;;;;155.13;50.47;;;7.70;99.90;;;;;;2612837;54;20139;-81
2022/11/29 22:46:39;;;;;;;126.27;47.97;;;7.80;99.90;;;;;;2613327;54;20154;-80
2022/11/29 22:52:28;;;;;;;135.93;47.60;;;7.70;99.90;;;;;;2615419;54;20414;-80
2022/11/29 22:55:19;;;;;;;158.03;48.60;;;7.80;99.90;;;;;;2615234;46;20419;-79
2022/11/29 23:04:12;;;;;;;153.50;49.50;;;7.70;99.90;;;;;;2612898;54;20403;-82
2022/11/29 23:06:56;;;;;;;140.17;48.70;;;7.70;99.90;;;;;;2613059;46;20407;-79
2022/11/29 23:09:22;;;;;;;151.60;49.33;;;7.80;99.90;;;;;;2614233;47;20403;-80
2022/11/29 23:15:09;;;;;;;131.40;48.17;;;7.70;99.90;;;;;;2614219;54;20140;-79
2022/11/29 23:21:05;;;;;;;184.57;51.80;;;7.60;99.90;;;;;;2612613;39;20580;-80
2022/11/29 23:26:52;;;;;;;160.93;53.53;;;7.70;99.90;;;;;;2612359;54;20406;-75
2022/11/29 23:32:39;;;;;;;172.47;54.47;;;7.70;99.90;;;;;;2614704;54;20665;-77
2022/11/29 23:38:26;;;;;;;158.37;50.93;;;7.70;99.90;;;;;;2615266;39;20683;-76
2022/11/29 23:44:14;;;;;;;178.00;58.03;;;7.70;99.90;;;;;;2616608;54;20251;-77
2022/11/29 23:50:01;;;;;;;179.60;51.80;;;7.70;99.90;;;;;;2614796;54;20138;-77
2022/11/29 23:59:51;;;;;;;180.40;54.90;;;7.80;99.90;;;;;;2615393;54;20378;-77
